Ambrose, GA

10:02 AM EDT on September 02, 2014 (GMT -0400)
Baymeadows Lake | Change Station
CLOSE
Current Station
Personal Weather Station
Location: Douglas, GA
Elevation: 256 ft
Nearby Weather Stations

Elev 256 ft 31.45 °N, 82.91 °W | Updated 11 seconds ago

Partly Cloudy
Partly Cloudy
83.5 °F
Feels Like 96 °F
N
0.0
Wind Variable Wind from East
Gusts 0.0 mph

Today
High -- | Low -- °F
--% Chance of Precip.
Yesterday
High -- | Low -- °F
Precip. -- in
7:08 AM 7:54 PM
First Quarter, 51% visible
Pressure 30.13 in
Visibility 10.0 miles
Clouds Clear
Heat Index 96 °F
Dew Point 80 °F
Humidity 89%
Rainfall 0.79 in
Snow Depth Not available.
UV 4 out of 12
Pollen 8.40 out of 12
Air Quality Not available.
Flu Activity Not available.
METAR KDQH 021355Z AUTO 00000KT 10SM CLR 26/23 A3013 RMK AO2

More Conditions Fewer Conditions

Pressure 30.13 in
Visibility 10.0 miles
Clouds Clear
Heat Index 96 °F
Dew Point 80 °F
Humidity 89%
Rainfall 0.79 in
Snow Depth Not available.
UV 4 out of 12
Pollen 8.40 out of 12
Air Quality Not available.
Flu Activity Not available.
METAR KDQH 021355Z AUTO 00000KT 10SM CLR 26/23 A3013 RMK AO2

More Conditions Fewer Conditions

10-Day Weather Forecast

Almanac

Astronomy

Sep. 02, 2014 Rise Set
Actual Time 7:08 AM EDT 7:54 PM EDT
Civil Twilight 6:43 AM EDT 8:19 PM EDT
Nautical Twilight 6:14 AM EDT 8:48 PM EDT
Astronomical Twilight 5:44 AM EDT 9:18 PM EDT
Moon 2:25 PM EDT 12:21 AM EDT
Length of Visible Light 13h 35m
Length of Day
12h 46m
Tomorrow will be 1m 51s shorter.
First Quarter, 51% of the Moon is Illuminated
Today
First Quarter
Sep 8
Full
Sep 15
Last Quarter
Sep 24
New
Oct 1
First Quarter

Today's Extremes

State Highs State Lows

Community

WunderPhotos

Upload Photos

1,749,670 photos uploaded!

WunderBlogs® & News

Nearby

Snow Depth

Station Depth Elevation
No new snow has been reported.

Earthquake Activity

City Distance Mag. Time & Date
No recent earthquake activity has been reported nearby.
Minimum magnitude displayed is 2.5.

Coastal Water Temperatures

Place Temperature
No Stations Reporting

Nearby Weather Stations